Time;durP1;ratioP1;P1;durP2;ratioP2;P2;SDS_P1;SDS_P2;PMS_P1;PMS_P2;Temp;Humidity;BMP_temperature;BMP_pressure;BME280_temperature;BME280_humidity;BME280_pressure;Samples;Min_cycle;Max_cycle;Signal;HPM_P1;HPM_P2
2022/10/25 00:04:27;;;;;;;8.30;5.65;;;;;;;;;;10170636;28;20078;-70
2022/10/25 00:09:25;;;;;;;9.45;5.63;;;;;;;;;;10176948;28;20077;-70
2022/10/25 00:14:25;;;;;;;5.45;4.38;;;;;;;;;;10197459;28;20081;-71
2022/10/25 00:19:23;;;;;;;4.30;3.22;;;;;;;;;;10191024;28;20085;-71
2022/10/25 00:24:22;;;;;;;10.25;3.25;;;;;;;;;;10186892;28;20487;-72
2022/10/25 00:29:23;;;;;;;5.38;3.33;;;;;;;;;;10184060;28;20081;-71
2022/10/25 00:34:22;;;;;;;4.78;3.30;;;;;;;;;;10167880;28;20080;-70
2022/10/25 00:39:21;;;;;;;10.00;3.28;;;;;;;;;;10168876;28;20070;-70
2022/10/25 00:44:40;;;;;;;6.20;4.03;;;;;;;;;;10168086;28;20035;-71
2022/10/25 00:49:40;;;;;;;8.18;3.85;;;;;;;;;;10168705;28;20078;-71
2022/10/25 00:54:40;;;;;;;6.22;3.38;;;;;;;;;;10167224;28;20038;-71
2022/10/25 00:59:39;;;;;;;8.07;3.15;;;;;;;;;;10167465;28;20049;-71
2022/10/25 01:04:37;;;;;;;3.50;2.97;;;;;;;;;;10170556;28;20046;-71
2022/10/25 01:09:38;;;;;;;4.22;3.10;;;;;;;;;;10168322;28;20062;-70
2022/10/25 01:14:37;;;;;;;5.63;2.88;;;;;;;;;;10176811;28;20045;-70
2022/10/25 01:19:43;;;;;;;5.15;3.25;;;;;;;;;;10195751;28;20045;-70
2022/10/25 01:24:59;;;;;;;4.55;3.28;;;;;;;;;;10194647;28;20042;-71
2022/10/25 01:30:06;;;;;;;7.28;3.05;;;;;;;;;;10182259;28;20080;-71
2022/10/25 01:35:09;;;;;;;6.75;3.42;;;;;;;;;;10169797;28;20042;-71
2022/10/25 01:40:10;;;;;;;9.30;3.50;;;;;;;;;;10167371;28;20054;-72
2022/10/25 01:45:10;;;;;;;6.80;3.15;;;;;;;;;;10165760;28;20476;-71
2022/10/25 01:50:12;;;;;;;5.72;3.70;;;;;;;;;;10167037;28;20523;-71
2022/10/25 01:55:12;;;;;;;3.65;2.88;;;;;;;;;;10162803;28;20551;-71
2022/10/25 02:00:11;;;;;;;6.00;2.90;;;;;;;;;;10179308;28;20056;-70
2022/10/25 02:05:15;;;;;;;4.70;3.47;;;;;;;;;;10194818;28;20092;-71
2022/10/25 02:10:15;;;;;;;5.65;4.03;;;;;;;;;;10180316;28;20078;-70
2022/10/25 02:15:15;;;;;;;9.65;4.00;;;;;;;;;;10165777;28;20046;-70
2022/10/25 02:20:17;;;;;;;4.07;2.85;;;;;;;;;;10165340;28;20046;-71
2022/10/25 02:25:16;;;;;;;4.47;3.25;;;;;;;;;;10165232;28;20497;-71
2022/10/25 02:30:14;;;;;;;6.38;3.33;;;;;;;;;;10165572;28;20066;-70
2022/10/25 02:35:16;;;;;;;5.80;3.05;;;;;;;;;;10165053;28;20515;-70
2022/10/25 02:40:14;;;;;;;5.57;3.80;;;;;;;;;;10165654;28;20070;-71
2022/10/25 02:45:12;;;;;;;5.15;3.40;;;;;;;;;;10165730;28;20069;-71
2022/10/25 02:50:11;;;;;;;8.20;3.30;;;;;;;;;;10164777;28;20078;-71
2022/10/25 02:55:10;;;;;;;7.07;3.75;;;;;;;;;;10170216;28;20110;-71
2022/10/25 03:00:10;;;;;;;6.75;3.10;;;;;;;;;;10168340;28;20078;-71
2022/10/25 03:05:13;;;;;;;8.77;3.90;;;;;;;;;;10186653;28;20061;-71
2022/10/25 03:10:12;;;;;;;6.28;3.80;;;;;;;;;;10199903;28;20085;-71
2022/10/25 03:15:11;;;;;;;7.07;3.78;;;;;;;;;;10186716;28;20042;-70
2022/10/25 03:20:10;;;;;;;4.85;3.47;;;;;;;;;;10171357;28;20096;-73
2022/10/25 03:25:24;;;;;;;8.73;3.50;;;;;;;;;;10167127;28;20490;-70
2022/10/25 03:30:22;;;;;;;6.25;3.85;;;;;;;;;;10185796;28;20078;-70
2022/10/25 03:35:20;;;;;;;6.82;4.03;;;;;;;;;;10199213;28;20073;-72
2022/10/25 03:40:19;;;;;;;9.60;3.35;;;;;;;;;;10185021;28;20078;-72
2022/10/25 03:45:20;;;;;;;5.75;3.30;;;;;;;;;;10202152;28;20431;-70
2022/10/25 03:50:18;;;;;;;11.55;4.10;;;;;;;;;;10195906;28;20081;-70
2022/10/25 03:55:17;;;;;;;7.82;3.60;;;;;;;;;;10186420;28;20072;-70
2022/10/25 04:00:15;;;;;;;5.88;3.53;;;;;;;;;;10185241;28;20065;-70
2022/10/25 04:05:15;;;;;;;10.95;5.45;;;;;;;;;;10197349;28;20085;-71
2022/10/25 04:10:13;;;;;;;9.38;4.90;;;;;;;;;;10197685;28;20081;-71
2022/10/25 04:15:11;;;;;;;12.95;4.45;;;;;;;;;;10194865;28;20081;-72
2022/10/25 04:20:10;;;;;;;5.40;4.03;;;;;;;;;;10178826;28;20074;-71
2022/10/25 04:25:10;;;;;;;9.93;4.80;;;;;;;;;;10189448;28;20069;-71
2022/10/25 04:30:09;;;;;;;6.25;4.15;;;;;;;;;;10192919;28;20084;-71
2022/10/25 04:35:07;;;;;;;6.88;4.28;;;;;;;;;;10191244;28;20077;-71
2022/10/25 04:40:06;;;;;;;8.20;4.07;;;;;;;;;;10183184;28;20459;-71
2022/10/25 04:45:06;;;;;;;7.25;4.55;;;;;;;;;;10162160;28;20070;-70
2022/10/25 04:50:05;;;;;;;15.18;4.10;;;;;;;;;;10163593;28;20097;-72
2022/10/25 04:55:03;;;;;;;5.78;3.92;;;;;;;;;;10160509;28;20097;-71
2022/10/25 05:00:03;;;;;;;9.52;3.95;;;;;;;;;;10169480;28;20070;-71
2022/10/25 05:05:03;;;;;;;6.05;3.80;;;;;;;;;;10169764;28;20081;-72
2022/10/25 05:10:01;;;;;;;5.10;3.47;;;;;;;;;;10167915;28;20607;-72
2022/10/25 05:14:59;;;;;;;6.03;4.13;;;;;;;;;;10167437;28;20081;-72
2022/10/25 05:19:57;;;;;;;8.55;6.22;;;;;;;;;;10170619;28;20066;-72
2022/10/25 05:24:57;;;;;;;9.02;3.75;;;;;;;;;;10166836;28;20074;-71
2022/10/25 05:29:55;;;;;;;9.48;4.32;;;;;;;;;;10165813;28;20488;-70
2022/10/25 05:34:53;;;;;;;7.30;4.20;;;;;;;;;;10164697;28;20081;-70
2022/10/25 05:39:51;;;;;;;7.10;4.35;;;;;;;;;;10166120;28;20062;-71
2022/10/25 05:44:51;;;;;;;5.78;4.13;;;;;;;;;;10165666;28;20508;-71
2022/10/25 05:49:49;;;;;;;8.00;4.75;;;;;;;;;;10165987;28;20382;-70
2022/10/25 05:54:47;;;;;;;15.25;5.65;;;;;;;;;;10165153;28;20062;-71
2022/10/25 05:59:45;;;;;;;6.50;4.47;;;;;;;;;;10165716;28;20504;-71
2022/10/25 06:04:45;;;;;;;5.85;4.18;;;;;;;;;;10165755;28;20048;-72
2022/10/25 06:09:49;;;;;;;11.10;3.72;;;;;;;;;;10165517;28;20070;-72
2022/10/25 06:14:48;;;;;;;6.90;4.15;;;;;;;;;;10198944;28;20142;-71
2022/10/25 06:19:47;;;;;;;7.18;4.60;;;;;;;;;;10184419;28;20074;-71
2022/10/25 06:24:45;;;;;;;9.45;4.75;;;;;;;;;;10174203;28;20073;-71
2022/10/25 06:29:43;;;;;;;9.73;4.38;;;;;;;;;;10163428;28;20080;-71
2022/10/25 06:34:42;;;;;;;13.25;7.10;;;;;;;;;;10169715;28;20105;-71
2022/10/25 06:39:41;;;;;;;17.35;6.47;;;;;;;;;;10168779;28;20077;-71
2022/10/25 06:44:39;;;;;;;10.38;5.95;;;;;;;;;;10164083;28;20469;-71
2022/10/25 06:49:37;;;;;;;9.73;6.15;;;;;;;;;;10165545;28;20077;-71
2022/10/25 06:54:36;;;;;;;8.93;4.88;;;;;;;;;;10166246;28;20314;-71
2022/10/25 06:59:35;;;;;;;7.50;4.07;;;;;;;;;;10171758;28;20472;-72
2022/10/25 07:04:33;;;;;;;5.38;3.83;;;;;;;;;;10179914;28;20134;-72
2022/10/25 07:09:31;;;;;;;10.30;4.43;;;;;;;;;;10199924;28;20080;-71
2022/10/25 07:14:30;;;;;;;14.55;5.35;;;;;;;;;;10192047;28;20073;-72
2022/10/25 07:19:29;;;;;;;37.55;9.30;;;;;;;;;;10173082;28;20065;-72
2022/10/25 07:24:27;;;;;;;17.20;6.63;;;;;;;;;;10171986;28;20038;-72
2022/10/25 07:29:26;;;;;;;19.70;5.75;;;;;;;;;;10172048;28;20073;-72
2022/10/25 07:34:24;;;;;;;10.85;5.60;;;;;;;;;;10177788;28;20451;-72
2022/10/25 07:39:23;;;;;;;7.40;5.43;;;;;;;;;;10198926;28;20070;-72
2022/10/25 07:44:22;;;;;;;8.20;5.38;;;;;;;;;;10191097;28;20053;-71
2022/10/25 07:49:22;;;;;;;14.48;7.97;;;;;;;;;;10168896;28;20074;-71
2022/10/25 07:54:20;;;;;;;17.02;10.20;;;;;;;;;;10169961;28;20069;-69
2022/10/25 07:59:20;;;;;;;32.63;6.75;;;;;;;;;;10168934;28;20078;-70
2022/10/25 08:04:18;;;;;;;15.93;6.15;;;;;;;;;;10168045;28;20080;-70
2022/10/25 08:09:17;;;;;;;11.75;7.97;;;;;;;;;;10169573;28;20034;-70
2022/10/25 08:14:36;;;;;;;16.45;7.53;;;;;;;;;;10169195;28;20077;-70
2022/10/25 08:19:39;;;;;;;14.15;7.13;;;;;;;;;;10170320;28;20066;-70
2022/10/25 08:24:38;;;;;;;12.60;6.80;;;;;;;;;;10168338;28;20038;-71
2022/10/25 08:29:38;;;;;;;19.75;7.22;;;;;;;;;;10178186;28;20061;-71
2022/10/25 08:34:36;;;;;;;10.63;7.38;;;;;;;;;;10197220;28;20065;-71
2022/10/25 08:39:35;;;;;;;8.88;6.30;;;;;;;;;;10186676;28;20076;-71
2022/10/25 08:44:37;;;;;;;10.48;5.97;;;;;;;;;;10183125;28;20456;-70
2022/10/25 08:49:43;;;;;;;9.70;6.50;;;;;;;;;;10167730;28;20078;-71
2022/10/25 08:54:43;;;;;;;10.07;6.20;;;;;;;;;;10166983;28;20080;-70
2022/10/25 08:59:43;;;;;;;16.67;7.63;;;;;;;;;;10167233;28;20066;-70
2022/10/25 09:04:42;;;;;;;18.45;5.80;;;;;;;;;;10170158;28;20081;-70
2022/10/25 09:09:45;;;;;;;7.95;5.75;;;;;;;;;;10182254;28;20542;-71
2022/10/25 09:14:45;;;;;;;9.65;6.32;;;;;;;;;;10196349;28;20080;-71
2022/10/25 09:19:48;;;;;;;8.50;5.97;;;;;;;;;;10195501;28;20053;-71
2022/10/25 09:24:53;;;;;;;10.27;6.82;;;;;;;;;;10195321;28;20069;-71
2022/10/25 09:29:57;;;;;;;11.48;5.68;;;;;;;;;;10195263;28;20077;-71
2022/10/25 09:35:01;;;;;;;11.32;7.65;;;;;;;;;;10182893;28;20461;-71
2022/10/25 09:40:01;;;;;;;10.68;7.30;;;;;;;;;;10166652;28;20455;-71
2022/10/25 09:45:01;;;;;;;14.23;7.22;;;;;;;;;;10165798;28;20066;-71
2022/10/25 09:50:02;;;;;;;16.42;7.35;;;;;;;;;;10178488;28;20058;-71
2022/10/25 09:55:06;;;;;;;16.08;7.57;;;;;;;;;;10194725;28;20482;-71
2022/10/25 10:00:05;;;;;;;10.27;7.22;;;;;;;;;;10183683;28;20459;-71
2022/10/25 10:05:14;;;;;;;17.73;7.67;;;;;;;;;;10168698;28;20081;-71
2022/10/25 10:10:13;;;;;;;19.57;7.80;;;;;;;;;;10175315;28;20078;-71
2022/10/25 10:15:16;;;;;;;15.20;6.38;;;;;;;;;;10173810;28;20119;-71
2022/10/25 10:20:16;;;;;;;11.95;7.35;;;;;;;;;;10173621;28;20050;-70
2022/10/25 10:25:19;;;;;;;14.07;6.35;;;;;;;;;;10175892;28;20057;-70
2022/10/25 10:30:24;;;;;;;16.02;7.25;;;;;;;;;;10173722;28;20085;-71
2022/10/25 10:35:28;;;;;;;16.33;6.05;;;;;;;;;;10171726;28;20073;-71
2022/10/25 10:40:27;;;;;;;11.63;4.88;;;;;;;;;;10175476;28;20062;-70
2022/10/25 10:45:25;;;;;;;9.13;5.32;;;;;;;;;;10186034;28;20164;-70
2022/10/25 10:50:24;;;;;;;12.00;5.95;;;;;;;;;;10199035;28;20473;-71
2022/10/25 10:55:26;;;;;;;6.35;4.53;;;;;;;;;;10200977;28;20130;-71
2022/10/25 11:00:25;;;;;;;9.02;5.20;;;;;;;;;;10200349;28;20049;-71
2022/10/25 11:05:24;;;;;;;13.63;6.75;;;;;;;;;;10185150;28;20445;-71
2022/10/25 11:10:25;;;;;;;13.48;7.05;;;;;;;;;;10171256;28;20054;-71
2022/10/25 11:15:28;;;;;;;13.63;5.95;;;;;;;;;;10170327;28;20073;-70
2022/10/25 11:20:28;;;;;;;15.77;5.70;;;;;;;;;;10170724;28;20078;-71
2022/10/25 11:25:33;;;;;;;19.02;6.57;;;;;;;;;;10170451;28;20535;-70
2022/10/25 11:30:36;;;;;;;22.63;7.00;;;;;;;;;;10190569;23;20089;-70
2022/10/25 11:35:47;;;;;;;10.65;5.70;;;;;;;;;;10155276;28;20082;-70
2022/10/25 11:40:53;;;;;;;16.98;7.28;;;;;;;;;;10171802;28;20038;-70
2022/10/25 11:45:56;;;;;;;21.90;7.13;;;;;;;;;;10159863;28;20069;-71
2022/10/25 11:50:58;;;;;;;18.13;9.23;;;;;;;;;;10175910;28;20054;-71
2022/10/25 11:56:01;;;;;;;12.40;6.30;;;;;;;;;;10147933;28;20054;-71
2022/10/25 12:01:06;;;;;;;11.38;6.97;;;;;;;;;;10163767;28;20484;-71
2022/10/25 12:06:10;;;;;;;19.02;6.93;;;;;;;;;;10165153;28;20042;-71
2022/10/25 12:11:11;;;;;;;14.27;8.15;;;;;;;;;;10158052;28;20520;-71
2022/10/25 12:16:16;;;;;;;14.20;8.10;;;;;;;;;;10164445;28;20578;-71
2022/10/25 12:21:17;;;;;;;16.27;6.63;;;;;;;;;;10172962;28;20104;-71
2022/10/25 12:26:20;;;;;;;17.20;6.82;;;;;;;;;;10169639;28;20042;-71
2022/10/25 12:31:19;;;;;;;17.08;8.10;;;;;;;;;;10170043;28;20085;-71
2022/10/25 12:36:20;;;;;;;20.75;7.10;;;;;;;;;;10163964;28;20073;-70
2022/10/25 12:41:21;;;;;;;18.05;6.22;;;;;;;;;;10123109;28;20215;-70
2022/10/25 12:46:32;;;;;;;20.10;7.72;;;;;;;;;;10151430;28;20097;-71
2022/10/25 12:51:37;;;;;;;15.68;6.55;;;;;;;;;;10163267;28;20077;-70
2022/10/25 12:56:44;;;;;;;20.75;6.95;;;;;;;;;;10162787;28;20074;-70
2022/10/25 13:02:03;;;;;;;17.85;6.78;;;;;;;;;;10163833;28;20066;-70
2022/10/25 13:07:02;;;;;;;14.40;6.18;;;;;;;;;;10160639;28;20555;-71
2022/10/25 13:12:04;;;;;;;19.40;6.63;;;;;;;;;;10170139;28;20152;-71
2022/10/25 13:17:26;;;;;;;12.93;5.68;;;;;;;;;;10140275;28;20058;-71
2022/10/25 13:22:33;;;;;;;18.17;7.15;;;;;;;;;;10146755;28;20093;-71
2022/10/25 13:27:37;;;;;;;14.88;6.20;;;;;;;;;;10150794;28;20058;-72
2022/10/25 13:32:36;;;;;;;18.27;6.75;;;;;;;;;;10160360;28;20081;-71
2022/10/25 13:37:39;;;;;;;13.95;5.93;;;;;;;;;;10160197;28;20053;-71
2022/10/25 13:42:39;;;;;;;16.27;6.97;;;;;;;;;;10173012;28;20069;-71
2022/10/25 13:47:39;;;;;;;20.52;7.15;;;;;;;;;;10160469;28;20531;-71
2022/10/25 13:52:37;;;;;;;15.77;7.25;;;;;;;;;;10192122;23;20069;-72
2022/10/25 13:57:47;;;;;;;15.43;7.85;;;;;;;;;;10193696;28;20042;-71
2022/10/25 14:03:04;;;;;;;16.85;7.78;;;;;;;;;;10164130;28;20500;-72
2022/10/25 14:08:11;;;;;;;15.32;7.53;;;;;;;;;;10164276;28;20082;-72
2022/10/25 14:13:21;;;;;;;14.43;7.60;;;;;;;;;;10164670;28;20532;-72
2022/10/25 14:18:21;;;;;;;17.30;7.28;;;;;;;;;;10163074;28;20042;-71
2022/10/25 14:23:21;;;;;;;18.98;8.68;;;;;;;;;;10164102;28;20049;-71
2022/10/25 14:28:23;;;;;;;23.80;8.63;;;;;;;;;;10164472;28;20076;-71
2022/10/25 14:33:23;;;;;;;18.38;9.23;;;;;;;;;;10164018;28;20074;-70
2022/10/25 14:38:22;;;;;;;26.33;18.58;;;;;;;;;;10165595;28;20075;-72
2022/10/25 14:43:23;;;;;;;19.48;16.25;;;;;;;;;;10162454;28;20049;-72
2022/10/25 14:48:22;;;;;;;28.70;12.63;;;;;;;;;;10165585;28;20078;-71
2022/10/25 14:53:20;;;;;;;22.15;9.20;;;;;;;;;;10197901;28;20093;-70
2022/10/25 14:58:18;;;;;;;17.40;8.80;;;;;;;;;;10200328;28;20037;-71
2022/10/25 15:03:18;;;;;;;31.45;15.68;;;;;;;;;;10170041;28;20507;-71
2022/10/25 15:08:17;;;;;;;29.98;11.45;;;;;;;;;;10199863;28;20077;-70
2022/10/25 15:13:16;;;;;;;21.15;10.27;;;;;;;;;;10199140;28;20088;-71
2022/10/25 15:18:41;;;;;;;21.23;9.45;;;;;;;;;;10170212;28;20500;-69
2022/10/25 15:23:42;;;;;;;18.52;8.88;;;;;;;;;;10122342;28;20076;-68
2022/10/25 15:28:46;;;;;;;18.80;8.57;;;;;;;;;;10170042;28;20046;-71
2022/10/25 15:33:47;;;;;;;22.45;9.50;;;;;;;;;;10170085;28;20077;-71
2022/10/25 15:38:46;;;;;;;15.70;8.50;;;;;;;;;;10170056;28;20097;-70
2022/10/25 15:44:04;;;;;;;18.15;7.97;;;;;;;;;;10169490;28;20075;-71
2022/10/25 15:49:05;;;;;;;18.63;8.65;;;;;;;;;;10169166;28;20176;-70
2022/10/25 15:54:05;;;;;;;16.00;7.28;;;;;;;;;;10169380;28;20074;-70
2022/10/25 15:59:03;;;;;;;16.00;7.53;;;;;;;;;;10168972;28;20074;-70
2022/10/25 16:04:01;;;;;;;14.60;7.63;;;;;;;;;;10173758;28;20042;-70
2022/10/25 16:09:00;;;;;;;20.33;7.72;;;;;;;;;;10196747;28;20054;-70
2022/10/25 16:13:59;;;;;;;21.15;7.65;;;;;;;;;;10191703;28;20526;-70
2022/10/25 16:18:58;;;;;;;19.02;9.45;;;;;;;;;;10167872;28;20617;-69
2022/10/25 16:24:00;;;;;;;21.13;8.35;;;;;;;;;;10185279;28;20074;-69
2022/10/25 16:29:00;;;;;;;33.47;9.18;;;;;;;;;;10159080;28;20089;-69
2022/10/25 16:33:58;;;;;;;18.20;7.95;;;;;;;;;;10185965;28;20077;-68
2022/10/25 16:38:56;;;;;;;9.63;6.47;;;;;;;;;;10188338;28;20069;-69
2022/10/25 16:43:55;;;;;;;21.92;8.32;;;;;;;;;;10165888;28;20084;-68
2022/10/25 16:48:54;;;;;;;14.75;8.02;;;;;;;;;;10156246;28;20085;-69
2022/10/25 16:53:58;;;;;;;23.77;8.25;;;;;;;;;;10191693;28;20074;-69
2022/10/25 16:58:56;;;;;;;17.33;11.07;;;;;;;;;;10193927;28;20074;-69
2022/10/25 17:03:56;;;;;;;22.05;8.77;;;;;;;;;;10188993;28;20179;-69
2022/10/25 17:08:54;;;;;;;23.02;7.57;;;;;;;;;;10187562;28;20080;-70
2022/10/25 17:13:52;;;;;;;13.60;8.15;;;;;;;;;;10181842;28;20073;-69
2022/10/25 17:18:51;;;;;;;17.40;9.48;;;;;;;;;;10188467;28;20069;-69
2022/10/25 17:23:50;;;;;;;12.98;6.80;;;;;;;;;;10193112;28;20480;-69
2022/10/25 17:28:48;;;;;;;16.42;6.85;;;;;;;;;;10189913;28;20073;-69
2022/10/25 17:33:47;;;;;;;22.48;6.97;;;;;;;;;;10162833;28;20618;-69
2022/10/25 17:38:45;;;;;;;16.10;7.07;;;;;;;;;;10189480;28;20072;-68
2022/10/25 17:43:45;;;;;;;20.33;6.93;;;;;;;;;;10191594;28;20042;-69
2022/10/25 17:48:43;;;;;;;14.98;6.28;;;;;;;;;;10192756;28;20085;-69
2022/10/25 17:53:41;;;;;;;17.58;6.95;;;;;;;;;;10191821;28;20110;-67
2022/10/25 17:58:40;;;;;;;20.27;7.82;;;;;;;;;;10177088;28;20073;-69
2022/10/25 18:03:40;;;;;;;32.22;18.08;;;;;;;;;;10164022;28;20084;-68
2022/10/25 18:08:38;;;;;;;28.23;8.18;;;;;;;;;;10187426;28;20081;-68
2022/10/25 18:13:39;;;;;;;15.40;8.27;;;;;;;;;;10168790;28;20455;-68
2022/10/25 18:18:38;;;;;;;19.25;7.82;;;;;;;;;;10182578;28;20480;-68
2022/10/25 18:23:37;;;;;;;12.93;7.20;;;;;;;;;;10182455;28;20073;-69
2022/10/25 18:28:36;;;;;;;17.13;7.60;;;;;;;;;;10178209;28;20050;-69
2022/10/25 18:33:35;;;;;;;19.45;6.80;;;;;;;;;;10200233;28;20080;-69
2022/10/25 18:38:33;;;;;;;19.52;6.28;;;;;;;;;;10199903;28;20070;-70
2022/10/25 18:43:33;;;;;;;11.50;5.75;;;;;;;;;;10200363;28;20070;-69
2022/10/25 18:48:31;;;;;;;18.90;6.22;;;;;;;;;;10200142;28;20081;-69
2022/10/25 18:53:30;;;;;;;15.20;6.00;;;;;;;;;;10199112;28;20053;-69
2022/10/25 18:58:29;;;;;;;10.23;5.40;;;;;;;;;;10170706;28;20081;-69
2022/10/25 19:03:29;;;;;;;15.63;6.60;;;;;;;;;;10198821;28;20065;-69
2022/10/25 19:08:27;;;;;;;11.10;5.00;;;;;;;;;;10197761;28;20074;-70
2022/10/25 19:13:27;;;;;;;8.55;5.43;;;;;;;;;;10196451;28;20061;-68
2022/10/25 19:18:26;;;;;;;8.07;5.00;;;;;;;;;;10173334;28;20085;-68
2022/10/25 19:23:25;;;;;;;13.50;5.07;;;;;;;;;;10172186;28;20054;-68
2022/10/25 19:28:24;;;;;;;9.88;5.68;;;;;;;;;;10176085;28;20077;-68
2022/10/25 19:33:22;;;;;;;22.90;9.13;;;;;;;;;;10189637;28;20077;-69
2022/10/25 19:38:20;;;;;;;10.30;6.15;;;;;;;;;;10195810;28;20077;-69
2022/10/25 19:43:20;;;;;;;10.90;5.25;;;;;;;;;;10196005;28;20076;-69
2022/10/25 19:48:19;;;;;;;12.85;5.38;;;;;;;;;;10196715;28;20077;-70
2022/10/25 19:53:18;;;;;;;14.55;6.85;;;;;;;;;;10190181;28;20495;-69
2022/10/25 19:58:16;;;;;;;18.55;5.97;;;;;;;;;;10172899;28;20085;-70
2022/10/25 20:03:15;;;;;;;15.80;7.40;;;;;;;;;;10189125;28;20495;-69
2022/10/25 20:08:14;;;;;;;19.15;6.65;;;;;;;;;;10169005;28;20443;-70
2022/10/25 20:13:13;;;;;;;14.60;6.80;;;;;;;;;;10167485;28;20062;-70
2022/10/25 20:18:12;;;;;;;11.40;6.05;;;;;;;;;;10168098;28;20073;-68
2022/10/25 20:23:11;;;;;;;8.73;5.63;;;;;;;;;;10179404;28;20049;-68
2022/10/25 20:28:10;;;;;;;10.48;5.30;;;;;;;;;;10196576;28;20061;-68
2022/10/25 20:33:09;;;;;;;8.18;4.60;;;;;;;;;;10166825;28;20050;-69
2022/10/25 20:38:12;;;;;;;10.18;4.97;;;;;;;;;;10196557;28;20077;-69
2022/10/25 20:43:10;;;;;;;8.73;4.38;;;;;;;;;;10161852;28;20077;-68
2022/10/25 20:48:09;;;;;;;9.82;4.75;;;;;;;;;;10185393;28;20076;-69
2022/10/25 20:53:07;;;;;;;10.73;4.97;;;;;;;;;;10164561;28;20461;-69
2022/10/25 20:58:09;;;;;;;15.65;11.55;;;;;;;;;;10167470;28;20073;-70
2022/10/25 21:03:07;;;;;;;15.00;10.75;;;;;;;;;;10194324;28;20483;-70
2022/10/25 21:08:06;;;;;;;9.77;5.50;;;;;;;;;;10191711;28;20069;-69
2022/10/25 21:13:04;;;;;;;9.15;6.00;;;;;;;;;;10185738;28;20490;-69
2022/10/25 21:18:04;;;;;;;7.55;4.70;;;;;;;;;;10191739;28;20081;-70
2022/10/25 21:23:03;;;;;;;7.32;4.75;;;;;;;;;;10194284;28;20050;-69
2022/10/25 21:28:01;;;;;;;6.30;4.60;;;;;;;;;;10188602;28;20054;-69
2022/10/25 21:33:00;;;;;;;10.73;4.85;;;;;;;;;;10194148;28;20062;-70
2022/10/25 21:37:59;;;;;;;7.20;5.38;;;;;;;;;;10194200;28;20133;-69
2022/10/25 21:42:58;;;;;;;5.90;4.90;;;;;;;;;;10168621;28;20504;-69
2022/10/25 21:47:56;;;;;;;11.02;4.60;;;;;;;;;;10194021;28;20076;-69
2022/10/25 21:52:57;;;;;;;12.95;5.75;;;;;;;;;;10194597;28;20053;-69
2022/10/25 21:57:57;;;;;;;9.88;5.13;;;;;;;;;;10164964;28;20506;-69
2022/10/25 22:02:56;;;;;;;12.38;5.30;;;;;;;;;;10193906;28;20066;-68
2022/10/25 22:07:54;;;;;;;7.68;4.70;;;;;;;;;;10191874;28;20550;-69
2022/10/25 22:12:56;;;;;;;5.97;4.82;;;;;;;;;;10191881;28;20066;-69
2022/10/25 22:17:55;;;;;;;8.85;4.95;;;;;;;;;;10192587;28;20089;-69
2022/10/25 22:22:54;;;;;;;10.50;4.68;;;;;;;;;;10192817;28;20068;-68
2022/10/25 22:27:52;;;;;;;7.97;5.53;;;;;;;;;;10153286;28;20084;-69
2022/10/25 22:32:50;;;;;;;8.13;5.03;;;;;;;;;;10159419;28;20076;-70
2022/10/25 22:37:50;;;;;;;22.30;6.25;;;;;;;;;;10161427;28;20089;-69
2022/10/25 22:42:48;;;;;;;7.00;4.65;;;;;;;;;;10146454;28;20045;-70
2022/10/25 22:47:47;;;;;;;10.63;4.40;;;;;;;;;;10164355;28;20471;-69
2022/10/25 22:52:45;;;;;;;11.85;5.25;;;;;;;;;;10163822;28;20077;-68
2022/10/25 22:57:45;;;;;;;6.63;5.18;;;;;;;;;;10164207;28;20092;-69
2022/10/25 23:02:44;;;;;;;6.32;4.88;;;;;;;;;;10192662;28;20491;-69
2022/10/25 23:07:43;;;;;;;13.25;5.72;;;;;;;;;;10192678;28;20061;-69
2022/10/25 23:12:41;;;;;;;7.55;5.45;;;;;;;;;;10149815;28;20046;-69
2022/10/25 23:17:40;;;;;;;7.75;5.78;;;;;;;;;;10183013;28;20090;-70
2022/10/25 23:22:39;;;;;;;8.60;5.60;;;;;;;;;;10169398;28;20070;-68
2022/10/25 23:27:37;;;;;;;6.43;5.70;;;;;;;;;;10170453;28;20065;-68
2022/10/25 23:32:35;;;;;;;6.82;5.43;;;;;;;;;;10199154;28;20069;-68
2022/10/25 23:37:35;;;;;;;6.65;5.15;;;;;;;;;;10198985;28;20516;-68
2022/10/25 23:42:33;;;;;;;6.30;4.85;;;;;;;;;;10199045;28;20049;-68
2022/10/25 23:47:33;;;;;;;14.50;5.97;;;;;;;;;;10170571;28;20073;-68
2022/10/25 23:52:31;;;;;;;8.73;5.80;;;;;;;;;;10159838;28;20082;-69
2022/10/25 23:57:31;;;;;;;7.35;5.97;;;;;;;;;;10194832;28;20871;-69
